Time;durP1;ratioP1;P1;durP2;ratioP2;P2;SDS_P1;SDS_P2;PMS_P1;PMS_P2;Temp;Humidity;BMP_temperature;BMP_pressure;BME280_temperature;BME280_humidity;BME280_pressure;Samples;Min_cycle;Max_cycle;Signal;HPM_P1;HPM_P2
2023/04/28 00:00:13;;;;;;;0.50;0.50;;;;;;;11.06;61.11;96679.84;29395;222;63014;-58
2023/04/28 00:00:46;;;;;;;0.50;0.50;;;;;;;11.08;61.40;96679.53;29394;226;64009;-58
2023/04/28 00:01:17;;;;;;;0.50;0.50;;;;;;;11.09;61.18;96681.12;29395;235;63009;-56
2023/04/28 00:01:49;;;;;;;0.50;0.50;;;;;;;11.11;61.23;96678.91;29395;313;63005;-56
2023/04/28 00:02:20;;;;;;;0.50;0.50;;;;;;;11.14;61.34;96683.75;29395;323;63009;-59
2023/04/28 00:02:52;;;;;;;0.50;0.50;;;;;;;11.16;61.06;96681.53;29395;219;63005;-56
2023/04/28 00:03:24;;;;;;;0.50;0.50;;;;;;;11.15;61.36;96679.91;29395;218;63009;-56
2023/04/28 00:03:56;;;;;;;0.50;0.50;;;;;;;11.13;61.00;96682.12;29395;259;63005;-55
2023/04/28 00:04:28;;;;;;;0.50;0.50;;;;;;;11.11;61.16;96684.34;29395;256;63009;-55
2023/04/28 00:05:00;;;;;;;0.50;0.50;;;;;;;11.10;61.12;96688.16;29395;210;63004;-57
2023/04/28 00:05:31;;;;;;;0.50;0.50;;;;;;;11.09;61.49;96686.53;29395;218;63009;-56
2023/04/28 00:06:03;;;;;;;0.50;0.50;;;;;;;11.08;61.50;96687.69;29394;505;64004;-55
2023/04/28 00:06:34;;;;;;;0.50;0.50;;;;;;;11.07;61.50;96689.59;29395;394;63008;-56
2023/04/28 00:07:05;;;;;;;0.50;0.50;;;;;;;11.07;61.37;96694.22;29395;419;63004;-56
2023/04/28 00:07:36;;;;;;;0.50;0.50;;;;;;;11.06;61.69;96692.59;29395;527;63009;-57
2023/04/28 00:08:07;;;;;;;0.50;0.50;;;;;;;11.06;61.44;96689.88;29395;258;63005;-56
2023/04/28 00:08:39;;;;;;;0.47;0.47;;;;;;;11.06;61.59;96687.97;29394;349;64014;-56
2023/04/28 00:09:11;;;;;;;0.50;0.50;;;;;;;11.07;61.43;96686.88;29396;215;63009;-56
2023/04/28 00:09:43;;;;;;;0.50;0.50;;;;;;;11.06;61.46;96684.47;29395;248;63009;-56
2023/04/28 00:10:14;;;;;;;0.50;0.50;;;;;;;11.08;61.55;96690.41;29395;421;63005;-56
2023/04/28 00:10:45;;;;;;;0.50;0.50;;;;;;;11.08;61.81;96674.09;29395;199;63009;-56
2023/04/28 00:11:18;;;;;;;0.50;0.50;;;;;;;11.12;61.53;96672.38;29395;415;63005;-56
2023/04/28 00:11:49;;;;;;;0.50;0.50;;;;;;;11.18;61.32;96673.88;29395;276;63004;-56
2023/04/28 00:12:20;;;;;;;0.43;0.43;;;;;;;11.19;61.24;96666.53;29395;366;63004;-56
2023/04/28 00:12:52;;;;;;;0.43;0.43;;;;;;;11.19;61.49;96664.63;29395;325;63009;-58
2023/04/28 00:13:23;;;;;;;0.50;0.50;;;;;;;11.21;61.28;96662.41;29394;412;64004;-58
2023/04/28 00:13:55;;;;;;;0.60;0.60;;;;;;;11.19;61.11;96661.91;29394;220;64013;-56
2023/04/28 00:14:26;;;;;;;0.50;0.50;;;;;;;11.17;61.13;96666.84;29395;224;63004;-56
2023/04/28 00:14:57;;;;;;;0.50;0.50;;;;;;;11.17;61.40;96671.47;29395;224;63009;-57
2023/04/28 00:15:29;;;;;;;0.50;0.50;;;;;;;11.15;61.44;96669.06;29395;198;63005;-56
2023/04/28 00:16:01;;;;;;;1.02;1.02;;;;;;;11.12;61.46;96669.66;29395;234;63009;-57
2023/04/28 00:16:32;;;;;;;0.50;0.50;;;;;;;11.09;61.66;96660.19;29395;205;63005;-56
2023/04/28 00:17:03;;;;;;;0.50;0.50;;;;;;;11.09;61.75;96670.25;29395;263;63009;-56
2023/04/28 00:17:34;;;;;;;0.50;0.50;;;;;;;11.08;61.66;96674.09;29395;350;63005;-55
2023/04/28 00:18:06;;;;;;;0.50;0.50;;;;;;;11.08;61.68;96668.69;29394;368;64013;-55
2023/04/28 00:18:38;;;;;;;0.50;0.50;;;;;;;11.07;61.90;96672.50;29395;222;63005;-56
2023/04/28 00:19:09;;;;;;;0.50;0.50;;;;;;;11.06;62.02;96671.69;29395;196;63009;-56
2023/04/28 00:19:41;;;;;;;0.50;0.50;;;;;;;11.03;61.79;96674.19;29395;447;63006;-55
2023/04/28 00:20:12;;;;;;;0.50;0.50;;;;;;;11.00;61.84;96669.38;29395;348;63026;-57
2023/04/28 00:20:43;;;;;;;0.50;0.50;;;;;;;10.97;61.98;96670.78;29395;245;63004;-55
2023/04/28 00:21:15;;;;;;;0.50;0.50;;;;;;;10.95;62.18;96672.97;29395;219;63009;-55
2023/04/28 00:21:46;;;;;;;0.50;0.50;;;;;;;10.92;62.40;96670.06;29395;246;63004;-56
2023/04/28 00:22:18;;;;;;;0.50;0.50;;;;;;;10.90;62.23;96666.84;29395;207;63008;-57
2023/04/28 00:22:49;;;;;;;0.50;0.50;;;;;;;10.89;62.68;96676.09;29395;224;63005;-56
2023/04/28 00:23:21;;;;;;;0.50;0.50;;;;;;;10.88;62.70;96674.47;29394;226;64014;-56
2023/04/28 00:23:53;;;;;;;0.50;0.50;;;;;;;10.88;62.82;96675.28;29395;242;63010;-57
2023/04/28 00:24:24;;;;;;;0.50;0.50;;;;;;;10.89;62.70;96666.03;29395;327;63009;-56
2023/04/28 00:24:55;;;;;;;0.50;0.50;;;;;;;10.98;62.43;96674.28;29395;248;63005;-57
2023/04/28 00:25:26;;;;;;;0.50;0.50;;;;;;;10.99;62.59;96665.03;29394;216;64013;-55
2023/04/28 00:25:58;;;;;;;0.50;0.50;;;;;;;10.96;62.28;96671.88;29395;225;63005;-55
2023/04/28 00:26:31;;;;;;;0.50;0.50;;;;;;;10.94;62.33;96667.84;29395;344;63009;-56
2023/04/28 00:27:02;;;;;;;0.47;0.47;;;;;;;10.90;62.30;96667.66;29395;220;63008;-55
2023/04/28 00:27:34;;;;;;;0.50;0.50;;;;;;;10.87;62.94;96673.66;29395;297;63025;-55
2023/04/28 00:28:05;;;;;;;0.50;0.50;;;;;;;10.86;62.98;96671.25;29395;220;63004;-55
2023/04/28 00:28:36;;;;;;;0.50;0.50;;;;;;;10.83;63.38;96671.84;29395;202;63009;-56
2023/04/28 00:29:08;;;;;;;0.50;0.50;;;;;;;10.80;63.30;96672.44;29395;251;63004;-56
2023/04/28 00:29:39;;;;;;;0.50;0.50;;;;;;;10.79;63.25;96681.69;29395;251;63008;-56
2023/04/28 00:30:11;;;;;;;0.50;0.50;;;;;;;10.79;62.93;96676.25;29395;311;63005;-58
2023/04/28 00:30:43;;;;;;;0.50;0.50;;;;;;;10.79;63.23;96677.06;29394;227;64014;-56
2023/04/28 00:31:15;;;;;;;0.50;0.50;;;;;;;10.79;62.99;96668.13;29395;235;63008;-56
2023/04/28 00:31:46;;;;;;;0.50;0.50;;;;;;;10.79;62.98;96670.84;29395;222;63009;-56
2023/04/28 00:32:17;;;;;;;0.50;0.50;;;;;;;10.79;62.96;96677.06;29395;372;63005;-56
2023/04/28 00:32:48;;;;;;;0.50;0.50;;;;;;;10.79;62.99;96666.22;29395;248;63009;-56
2023/04/28 00:33:20;;;;;;;0.50;0.50;;;;;;;10.79;63.13;96660.78;29394;334;64009;-55
2023/04/28 00:33:51;;;;;;;0.50;0.50;;;;;;;10.79;63.05;96665.41;29395;293;63009;-56
2023/04/28 00:34:23;;;;;;;0.70;0.70;;;;;;;10.81;63.08;96663.19;29395;202;63009;-58
2023/04/28 00:34:54;;;;;;;0.50;0.50;;;;;;;10.83;63.14;96666.41;29395;273;63009;-57
2023/04/28 00:35:26;;;;;;;0.50;0.50;;;;;;;10.84;63.21;96657.97;29395;215;63004;-57
2023/04/28 00:36:00;;;;;;;0.50;0.50;;;;;;;10.87;63.22;96662.00;29394;236;64013;-55
2023/04/28 00:36:32;;;;;;;0.50;0.50;;;;;;;10.89;62.75;96663.31;29395;332;63004;-55
2023/04/28 00:37:03;;;;;;;0.50;0.50;;;;;;;10.87;63.02;96653.88;29394;197;64013;-57
2023/04/28 00:37:36;;;;;;;0.50;0.50;;;;;;;10.88;62.78;96658.19;29395;225;63005;-56
2023/04/28 00:38:07;;;;;;;0.80;0.80;;;;;;;10.89;63.05;96659.78;29395;203;63009;-56
2023/04/28 00:38:42;;;;;;;0.50;0.50;;;;;;;10.89;63.08;96659.78;29395;247;63005;-58
2023/04/28 00:39:13;;;;;;;0.50;0.50;;;;;;;10.90;62.97;96654.06;29395;219;63009;-58
2023/04/28 00:39:46;;;;;;;0.50;0.50;;;;;;;10.92;62.91;96654.56;29395;198;63005;-56
2023/04/28 00:40:17;;;;;;;0.50;0.50;;;;;;;10.92;62.75;96654.56;29395;350;63009;-56
2023/04/28 00:40:48;;;;;;;0.50;0.50;;;;;;;10.93;62.71;96652.66;29395;268;63005;-58
2023/04/28 00:41:22;;;;;;;0.50;0.50;;;;;;;10.94;62.89;96657.00;29395;355;63009;-58
2023/04/28 00:41:53;;;;;;;0.50;0.50;;;;;;;10.94;62.59;96660.50;29395;236;63004;-57
2023/04/28 00:42:28;;;;;;;0.50;0.50;;;;;;;10.94;62.90;96648.84;29394;216;64013;-56
2023/04/28 00:43:02;;;;;;;0.50;0.50;;;;;;;10.95;62.77;96658.59;29395;240;63010;-57
2023/04/28 00:43:44;;;;;;;0.50;0.50;;;;;;;10.91;62.98;96652.16;29395;337;63008;-56
2023/04/28 00:44:15;;;;;;;0.50;0.50;;;;;;;10.90;62.79;96655.97;29395;274;63005;-57
2023/04/28 00:44:46;;;;;;;0.50;0.50;;;;;;;10.89;62.97;96654.37;29395;400;63009;-55
2023/04/28 00:45:18;;;;;;;0.50;0.50;;;;;;;10.90;62.86;96655.97;29395;215;63005;-56
2023/04/28 00:45:50;;;;;;;2.37;1.15;;;;;;;10.90;63.04;96650.56;29394;216;64014;-56
2023/04/28 00:46:26;;;;;;;0.50;0.50;;;;;;;10.88;62.76;96650.03;29395;222;63005;-57
2023/04/28 00:46:58;;;;;;;0.50;0.50;;;;;;;10.88;62.96;96647.34;29395;263;63009;-56
2023/04/28 00:47:33;;;;;;;0.40;0.40;;;;;;;10.89;62.86;96651.66;29395;249;63005;-56
2023/04/28 00:48:05;;;;;;;0.50;0.50;;;;;;;10.88;63.13;96653.56;29395;379;63009;-56
2023/04/28 00:48:38;;;;;;;0.50;0.50;;;;;;;10.89;62.83;96649.75;29395;383;63004;-56
2023/04/28 00:49:09;;;;;;;0.50;0.50;;;;;;;10.89;63.57;96657.09;29395;227;63009;-56
2023/04/28 00:49:40;;;;;;;0.50;0.50;;;;;;;10.89;63.00;96651.66;29395;226;63004;-56
2023/04/28 00:50:13;;;;;;;0.50;0.50;;;;;;;10.89;63.03;96648.94;29394;275;64032;-56
2023/04/28 00:50:45;;;;;;;0.50;0.50;;;;;;;10.88;63.18;96648.13;29395;234;63004;-55
2023/04/28 00:51:16;;;;;;;0.50;0.50;;;;;;;10.87;63.21;96657.38;29395;383;63008;-56
2023/04/28 00:51:47;;;;;;;0.50;0.50;;;;;;;10.86;63.09;96655.78;29395;232;63004;-56
2023/04/28 00:52:19;;;;;;;0.50;0.50;;;;;;;10.87;63.10;96651.16;29395;202;63009;-56
2023/04/28 00:52:51;;;;;;;1.45;1.45;;;;;;;10.89;63.05;96643.50;29395;240;63005;-56
2023/04/28 00:53:23;;;;;;;0.50;0.50;;;;;;;10.91;63.28;96652.16;29395;227;63009;-57
2023/04/28 00:53:56;;;;;;;0.50;0.50;;;;;;;10.91;63.01;96646.72;29395;305;63005;-57
2023/04/28 00:54:27;;;;;;;0.50;0.50;;;;;;;10.93;63.19;96649.94;29395;455;63009;-56
2023/04/28 00:55:04;;;;;;;0.50;0.50;;;;;;;10.91;62.95;96644.81;29395;244;63005;-55
2023/04/28 00:55:37;;;;;;;0.50;0.50;;;;;;;10.91;63.13;96652.16;29394;197;64013;-55
2023/04/28 00:56:09;;;;;;;0.93;0.93;;;;;;;10.91;63.08;96646.72;29395;432;63004;-55
2023/04/28 00:56:41;;;;;;;0.50;0.50;;;;;;;10.91;63.12;96650.25;29395;311;63009;-57
2023/04/28 00:57:13;;;;;;;0.50;0.50;;;;;;;10.92;63.17;96649.16;29395;202;63004;-56
2023/04/28 00:57:46;;;;;;;0.50;0.50;;;;;;;10.94;63.23;96648.84;29394;205;64013;-57
2023/04/28 00:58:18;;;;;;;0.50;0.50;;;;;;;10.95;62.98;96647.75;29395;255;63004;-55
2023/04/28 00:58:49;;;;;;;0.50;0.50;;;;;;;10.95;62.84;96647.75;29395;201;63008;-57
2023/04/28 00:59:20;;;;;;;0.50;0.50;;;;;;;10.94;63.09;96646.13;29395;240;63004;-59
2023/04/28 00:59:51;;;;;;;0.50;0.50;;;;;;;10.95;63.11;96645.03;29395;254;63009;-57
2023/04/28 01:00:23;;;;;;;0.50;0.50;;;;;;;10.95;63.06;96645.03;29395;387;63005;-57
2023/04/28 01:01:02;;;;;;;0.50;0.50;;;;;;;10.98;63.27;96647.94;29395;202;63009;-57
2023/04/28 01:01:35;;;;;;;0.50;0.50;;;;;;;10.96;63.14;96644.72;29395;202;63005;-58
2023/04/28 01:02:07;;;;;;;0.50;0.50;;;;;;;10.96;63.19;96644.72;29395;254;63027;-56
2023/04/28 01:02:38;;;;;;;0.50;0.50;;;;;;;10.94;62.95;96646.13;29395;229;63005;-57
2023/04/28 01:03:10;;;;;;;0.50;0.50;;;;;;;10.92;63.26;96646.44;29394;267;64013;-57
2023/04/28 01:03:41;;;;;;;0.50;0.50;;;;;;;10.92;63.21;96645.63;29395;303;63004;-56
2023/04/28 01:04:12;;;;;;;0.50;0.50;;;;;;;10.91;63.10;96633.97;29395;224;63009;-57
2023/04/28 01:04:50;;;;;;;0.50;0.50;;;;;;;10.91;63.12;96642.09;29395;270;63004;-57
2023/04/28 01:05:25;;;;;;;0.50;0.50;;;;;;;10.96;63.38;96638.50;29395;232;63009;-57
2023/04/28 01:05:58;;;;;;;0.50;0.50;;;;;;;10.97;63.07;96640.09;29395;222;63007;-59
2023/04/28 01:06:30;;;;;;;0.50;0.50;;;;;;;10.96;62.99;96628.44;29395;362;63008;-58
2023/04/28 01:07:02;;;;;;;0.50;0.50;;;;;;;10.98;62.93;96633.56;29395;281;63005;-57
2023/04/28 01:07:37;;;;;;;0.50;0.50;;;;;;;10.99;62.99;96637.91;29395;197;63014;-56
2023/04/28 01:08:09;;;;;;;0.50;0.50;;;;;;;10.99;62.93;96632.47;29395;198;63005;-56
2023/04/28 01:08:41;;;;;;;0.50;0.50;;;;;;;10.99;62.95;96632.47;29394;227;64013;-56
2023/04/28 01:09:12;;;;;;;0.50;0.50;;;;;;;10.98;62.80;96630.84;29395;374;63005;-56
2023/04/28 01:09:45;;;;;;;0.50;0.50;;;;;;;10.97;63.00;96638.19;29395;222;63009;-57
2023/04/28 01:10:16;;;;;;;0.50;0.50;;;;;;;10.95;62.97;96636.88;29395;196;63011;-55
2023/04/28 01:10:48;;;;;;;0.50;0.50;;;;;;;10.91;63.36;96633.97;29395;237;63020;-56
2023/04/28 01:11:19;;;;;;;0.50;0.50;;;;;;;10.90;63.25;96639.69;29395;203;63004;-56
2023/04/28 01:11:50;;;;;;;0.50;0.50;;;;;;;10.88;63.16;96631.84;29395;407;63009;-58
2023/04/28 01:12:22;;;;;;;0.50;0.50;;;;;;;10.88;63.69;96633.75;29395;367;63004;-56
2023/04/28 01:12:57;;;;;;;0.93;0.93;;;;;;;10.87;63.61;96643.00;29394;427;64013;-56
2023/04/28 01:13:28;;;;;;;0.50;0.50;;;;;;;10.87;63.57;96635.66;29395;218;63004;-57
2023/04/28 01:13:59;;;;;;;0.50;0.50;;;;;;;10.87;63.34;96629.44;29395;284;63008;-57
2023/04/28 01:14:32;;;;;;;0.50;0.50;;;;;;;10.85;63.60;96639.78;29395;369;63005;-56
2023/04/28 01:15:06;;;;;;;0.50;0.50;;;;;;;10.85;63.53;96637.06;29395;323;63019;-56
2023/04/28 01:15:38;;;;;;;2.05;2.05;;;;;;;10.85;63.46;96632.44;29395;200;63005;-56
2023/04/28 01:16:10;;;;;;;0.50;0.50;;;;;;;10.86;63.43;96639.47;29395;339;63009;-56
2023/04/28 01:16:42;;;;;;;0.50;0.50;;;;;;;10.86;63.57;96638.69;29395;345;63005;-57
2023/04/28 01:17:13;;;;;;;0.60;0.60;;;;;;;10.86;63.87;96638.69;29395;196;63009;-56
2023/04/28 01:17:46;;;;;;;0.50;0.50;;;;;;;10.87;63.62;96632.16;29395;272;63005;-56
2023/04/28 01:18:17;;;;;;;0.50;0.50;;;;;;;10.87;63.71;96637.56;29394;223;64013;-56
2023/04/28 01:18:49;;;;;;;0.50;0.50;;;;;;;10.88;63.51;96641.91;29395;274;63004;-56
2023/04/28 01:19:21;;;;;;;0.50;0.50;;;;;;;10.87;63.62;96640.28;29395;420;63009;-56
2023/04/28 01:19:52;;;;;;;0.50;0.50;;;;;;;10.86;63.75;96639.47;29394;253;64009;-56
2023/04/28 01:20:23;;;;;;;0.50;0.50;;;;;;;10.87;63.79;96632.16;29395;202;63008;-56
2023/04/28 01:20:56;;;;;;;0.50;0.50;;;;;;;10.86;63.55;96635.97;29395;299;63004;-56
2023/04/28 01:21:31;;;;;;;0.50;0.50;;;;;;;10.86;63.82;96633.25;29395;252;63009;-56
2023/04/28 01:22:03;;;;;;;0.50;0.50;;;;;;;10.85;63.84;96631.66;29395;222;63005;-56
2023/04/28 01:22:34;;;;;;;0.50;0.50;;;;;;;10.86;63.69;96633.25;29395;347;63026;-56
2023/04/28 01:23:15;;;;;;;0.50;0.50;;;;;;;10.86;63.70;96634.06;29395;202;63011;-56
2023/04/28 01:23:46;;;;;;;0.50;0.50;;;;;;;10.87;63.88;96626.72;29417;495;63009;-56
2023/04/28 01:24:17;;;;;;;0.50;0.50;;;;;;;10.88;63.72;96625.63;29396;352;63005;-56
2023/04/28 01:24:49;;;;;;;0.50;0.50;;;;;;;10.89;63.66;96627.22;29395;227;63009;-56
2023/04/28 01:25:20;;;;;;;0.50;0.50;;;;;;;10.88;63.77;96622.91;29394;198;64009;-56
2023/04/28 01:25:51;;;;;;;0.50;0.50;;;;;;;10.87;63.85;96622.09;29395;198;63009;-56
2023/04/28 01:26:23;;;;;;;0.50;0.50;;;;;;;10.88;63.75;96620.19;29395;202;63011;-56
2023/04/28 01:26:54;;;;;;;0.50;0.50;;;;;;;10.88;63.99;96617.47;29395;266;63009;-59
2023/04/28 01:27:25;;;;;;;0.50;0.50;;;;;;;10.89;63.54;96619.88;29395;206;63004;-56
2023/04/28 01:27:57;;;;;;;0.50;0.50;;;;;;;10.91;63.94;96620.38;29395;260;63008;-56
2023/04/28 01:28:28;;;;;;;0.50;0.50;;;;;;;10.93;63.60;96617.37;29395;212;63004;-57
2023/04/28 01:28:59;;;;;;;0.50;0.50;;;;;;;10.92;63.55;96611.16;29395;258;63009;-56
2023/04/28 01:29:30;;;;;;;0.50;0.50;;;;;;;10.94;63.63;96619.00;29395;197;63005;-57
2023/04/28 01:30:02;;;;;;;0.50;0.50;;;;;;;10.95;63.33;96620.59;29395;429;63009;-57
2023/04/28 01:30:34;;;;;;;0.50;0.50;;;;;;;10.95;63.69;96612.44;29394;326;64009;-56
2023/04/28 01:31:05;;;;;;;0.50;0.50;;;;;;;10.94;63.73;96616.28;29395;239;63018;-56
2023/04/28 01:31:37;;;;;;;0.50;0.50;;;;;;;10.93;63.42;96620.09;29395;209;63005;-56
2023/04/28 01:32:09;;;;;;;0.50;0.50;;;;;;;10.93;63.61;96622.81;29394;225;64013;-56
2023/04/28 01:32:41;;;;;;;0.50;0.50;;;;;;;10.92;63.54;96618.47;29395;265;63005;-56
2023/04/28 01:33:12;;;;;;;0.50;0.50;;;;;;;10.92;64.10;96615.78;29395;253;63009;-56
2023/04/28 01:33:45;;;;;;;0.50;0.50;;;;;;;10.90;63.94;96616.06;29395;267;63004;-56
2023/04/28 01:34:16;;;;;;;0.50;0.50;;;;;;;10.90;63.89;96613.34;29395;226;63009;-56
2023/04/28 01:34:47;;;;;;;0.50;0.50;;;;;;;10.90;64.15;96617.97;29395;391;63009;-57
2023/04/28 01:35:18;;;;;;;0.50;0.50;;;;;;;10.88;64.25;96614.75;29395;471;63009;-57
2023/04/28 01:35:49;;;;;;;0.50;0.50;;;;;;;10.91;64.12;96616.87;29395;206;63004;-56
2023/04/28 01:36:22;;;;;;;0.50;0.50;;;;;;;10.92;64.20;96615.78;29395;237;63009;-56
2023/04/28 01:36:54;;;;;;;0.50;0.50;;;;;;;10.92;63.85;96615.78;29395;220;63005;-56
2023/04/28 01:37:25;;;;;;;0.50;0.50;;;;;;;10.92;64.19;96622.00;29394;197;64014;-57
2023/04/28 01:37:56;;;;;;;0.50;0.50;;;;;;;10.91;63.88;96614.97;29395;263;63005;-56
2023/04/28 01:38:27;;;;;;;0.50;0.50;;;;;;;10.91;64.08;96611.44;29395;387;63009;-57
2023/04/28 01:38:59;;;;;;;0.50;0.50;;;;;;;10.93;64.18;96614.66;29395;374;63000;-56
2023/04/28 01:39:30;;;;;;;0.50;0.50;;;;;;;10.91;64.14;96614.16;29395;205;63009;-58
2023/04/28 01:40:02;;;;;;;0.50;0.50;;;;;;;10.92;64.14;96608.44;29394;416;64009;-56
2023/04/28 01:40:34;;;;;;;0.50;0.50;;;;;;;10.94;64.27;96599.97;29395;229;63009;-57
2023/04/28 01:41:05;;;;;;;0.50;0.50;;;;;;;10.94;64.19;96610.84;29395;212;63004;-56
2023/04/28 01:41:36;;;;;;;0.50;0.50;;;;;;;10.97;64.09;96615.66;29395;209;63009;-56
2023/04/28 01:42:08;;;;;;;0.50;0.50;;;;;;;10.97;64.18;96607.53;29394;373;64009;-56
2023/04/28 01:42:39;;;;;;;0.40;0.40;;;;;;;10.98;64.00;96606.41;29395;220;63009;-56
2023/04/28 01:43:10;;;;;;;0.50;0.50;;;;;;;10.97;63.89;96607.53;29395;338;63004;-58
2023/04/28 01:43:42;;;;;;;0.50;0.50;;;;;;;10.97;64.17;96607.53;29395;246;63008;-57
2023/04/28 01:44:14;;;;;;;0.40;0.40;;;;;;;10.97;63.82;96607.53;29395;256;63005;-58
2023/04/28 01:44:45;;;;;;;0.50;0.50;;;;;;;10.97;64.20;96612.97;29395;198;63009;-56
2023/04/28 01:45:16;;;;;;;0.50;0.50;;;;;;;10.96;63.71;96606.72;29395;231;63005;-56
2023/04/28 01:45:47;;;;;;;0.50;0.50;;;;;;;10.97;64.04;96607.53;29395;237;63009;-58
2023/04/28 01:46:18;;;;;;;0.50;0.50;;;;;;;10.99;63.92;96611.56;29394;215;64009;-56
2023/04/28 01:46:50;;;;;;;0.50;0.50;;;;;;;11.02;63.95;96610.16;29395;412;63009;-56
2023/04/28 01:47:21;;;;;;;0.50;0.50;;;;;;;11.01;63.63;96605.81;29395;386;63005;-56
2023/04/28 01:47:52;;;;;;;0.50;0.50;;;;;;;10.99;63.88;96605.31;29395;202;63011;-56
2023/04/28 01:48:23;;;;;;;0.50;0.50;;;;;;;10.98;63.90;96614.56;29395;267;63004;-56
2023/04/28 01:48:55;;;;;;;0.50;0.50;;;;;;;10.95;64.13;96620.59;29395;228;63009;-57
2023/04/28 01:49:29;;;;;;;0.50;0.50;;;;;;;10.94;64.07;96613.56;29395;272;63004;-59
2023/04/28 01:50:00;;;;;;;0.50;0.50;;;;;;;10.94;64.11;96616.28;29395;222;63009;-56
2023/04/28 01:50:32;;;;;;;0.40;0.40;;;;;;;10.93;64.08;96607.31;29395;322;63004;-56
2023/04/28 01:51:03;;;;;;;0.50;0.50;;;;;;;10.92;63.94;96610.34;29395;336;63008;-56
2023/04/28 01:51:35;;;;;;;0.50;0.50;;;;;;;10.94;64.00;96613.56;29394;233;64009;-58
2023/04/28 01:52:06;;;;;;;0.40;0.40;;;;;;;10.92;64.43;96605.72;29395;435;63027;-56
2023/04/28 01:52:37;;;;;;;0.50;0.50;;;;;;;10.98;64.18;96601.00;29395;298;63005;-57
2023/04/28 01:53:08;;;;;;;0.50;0.50;;;;;;;11.01;64.11;96600.38;29394;218;64013;-58
2023/04/28 01:53:40;;;;;;;0.50;0.50;;;;;;;11.05;63.80;96599.50;29395;205;63009;-57
2023/04/28 01:54:11;;;;;;;0.50;0.50;;;;;;;11.05;63.96;96594.06;29395;199;63009;-56
2023/04/28 01:54:42;;;;;;;0.47;0.47;;;;;;;11.05;63.66;96595.97;29395;391;63005;-56
2023/04/28 01:55:14;;;;;;;0.40;0.40;;;;;;;11.06;63.67;96600.28;29395;383;63009;-56
2023/04/28 01:55:46;;;;;;;0.40;0.40;;;;;;;11.05;63.89;96587.81;29395;431;63004;-56
2023/04/28 01:56:17;;;;;;;0.47;0.47;;;;;;;11.02;63.65;96594.66;29395;374;63009;-56
2023/04/28 01:56:48;;;;;;;0.40;0.40;;;;;;;11.00;63.94;96596.06;29395;348;63004;-56
2023/04/28 01:57:20;;;;;;;0.50;0.50;;;;;;;10.98;63.88;96590.94;29395;197;63009;-57
2023/04/28 01:57:51;;;;;;;0.50;0.50;;;;;;;10.99;64.03;96591.75;29395;442;63004;-56
2023/04/28 01:58:22;;;;;;;0.40;0.40;;;;;;;10.99;64.19;96594.47;29394;421;64013;-56
2023/04/28 01:58:54;;;;;;;0.88;0.88;;;;;;;10.98;63.79;96599.09;29394;197;64008;-56
2023/04/28 01:59:25;;;;;;;0.47;0.47;;;;;;;10.97;63.75;96599.38;29395;317;63009;-57
2023/04/28 01:59:57;;;;;;;0.50;0.50;;;;;;;10.97;63.92;96602.91;29395;204;63005;-56
2023/04/28 02:00:29;;;;;;;0.50;0.50;;;;;;;10.97;64.10;96597.47;29395;370;63009;-58
2023/04/28 02:01:01;;;;;;;0.50;0.50;;;;;;;11.01;63.78;96594.97;29395;491;63005;-56
2023/04/28 02:01:32;;;;;;;0.50;0.50;;;;;;;11.02;64.09;96593.84;29395;226;63009;-56
2023/04/28 02:02:03;;;;;;;0.50;0.50;;;;;;;11.02;63.73;96594.66;29395;426;63005;-56
2023/04/28 02:02:35;;;;;;;0.50;0.50;;;;;;;11.01;63.66;96592.25;29395;264;63017;-57
2023/04/28 02:03:07;;;;;;;0.50;0.50;;;;;;;11.02;63.82;96594.66;29394;220;64009;-56
2023/04/28 02:03:38;;;;;;;0.50;0.50;;;;;;;11.03;63.78;96595.47;29395;468;63009;-56
2023/04/28 02:04:13;;;;;;;0.50;0.50;;;;;;;10.99;64.25;96591.75;29395;362;63009;-56
2023/04/28 02:04:44;;;;;;;0.50;0.50;;;;;;;10.99;64.23;96599.88;29395;219;63009;-56
2023/04/28 02:05:16;;;;;;;0.50;0.50;;;;;;;10.99;64.11;96594.47;29395;219;63004;-56
2023/04/28 02:05:48;;;;;;;0.40;0.40;;;;;;;10.97;64.15;96593.97;29395;252;63008;-56
2023/04/28 02:06:19;;;;;;;0.50;0.50;;;;;;;10.98;64.06;96592.84;29395;202;63004;-56
2023/04/28 02:06:51;;;;;;;0.50;0.50;;;;;;;10.97;63.97;96594.75;29395;245;63009;-56
2023/04/28 02:07:22;;;;;;;0.40;0.40;;;;;;;10.96;64.11;96597.78;29395;199;63010;-56
2023/04/28 02:07:53;;;;;;;2.28;2.25;;;;;;;10.95;63.95;96586.09;29395;250;63023;-57
2023/04/28 02:08:24;;;;;;;0.50;0.50;;;;;;;10.95;64.16;96594.25;29394;337;64009;-55
2023/04/28 02:08:56;;;;;;;0.50;0.50;;;;;;;10.95;64.15;96593.44;29395;241;63009;-57
2023/04/28 02:09:27;;;;;;;0.40;0.40;;;;;;;10.94;64.20;96591.84;29394;467;64009;-55
2023/04/28 02:09:58;;;;;;;0.43;0.43;;;;;;;10.95;64.36;96593.44;29394;259;64009;-57
2023/04/28 02:10:29;;;;;;;0.40;0.40;;;;;;;10.98;64.38;96587.41;29394;199;64009;-55
2023/04/28 02:11:02;;;;;;;0.40;0.40;;;;;;;11.00;64.01;96591.44;29395;320;63009;-55
2023/04/28 02:11:34;;;;;;;0.50;0.50;;;;;;;10.99;64.15;96583.59;29395;276;63004;-56
2023/04/28 02:12:05;;;;;;;0.50;0.50;;;;;;;10.97;64.06;96585.81;29395;355;63013;-55
2023/04/28 02:12:37;;;;;;;0.50;0.50;;;;;;;10.98;64.26;96590.12;29395;196;63008;-55
2023/04/28 02:13:08;;;;;;;0.50;0.50;;;;;;;10.99;64.25;96586.31;29395;297;63008;-58
2023/04/28 02:13:39;;;;;;;0.50;0.50;;;;;;;11.03;63.97;96579.97;29394;219;64009;-56
2023/04/28 02:14:11;;;;;;;0.47;0.47;;;;;;;11.04;63.93;96576.16;29395;263;63009;-56
2023/04/28 02:14:42;;;;;;;0.50;0.50;;;;;;;11.12;63.68;96571.91;29395;363;63005;-56
2023/04/28 02:15:14;;;;;;;0.50;0.50;;;;;;;11.12;63.60;96568.38;29395;449;63009;-57
2023/04/28 02:15:45;;;;;;;0.50;0.50;;;;;;;11.08;63.66;96565.50;29395;203;63010;-57
2023/04/28 02:16:16;;;;;;;0.50;0.50;;;;;;;11.10;63.98;96574.13;29395;196;63009;-56
2023/04/28 02:16:48;;;;;;;0.50;0.50;;;;;;;11.08;63.91;96569.03;29395;376;63005;-56
2023/04/28 02:17:19;;;;;;;0.50;0.50;;;;;;;11.13;63.98;96568.09;29395;257;63009;-56
2023/04/28 02:17:50;;;;;;;0.50;0.50;;;;;;;11.14;64.03;96566.16;29394;375;64010;-55
2023/04/28 02:18:22;;;;;;;0.45;0.45;;;;;;;11.12;63.99;96566.47;29394;243;64013;-56
2023/04/28 02:18:53;;;;;;;0.50;0.50;;;;;;;11.15;63.96;96571.28;29395;351;63004;-55
2023/04/28 02:19:24;;;;;;;0.60;0.60;;;;;;;11.14;63.96;96564.25;29395;336;63009;-56
2023/04/28 02:19:56;;;;;;;0.40;0.40;;;;;;;11.11;63.81;96559.44;29395;237;63004;-56
2023/04/28 02:20:27;;;;;;;0.40;0.40;;;;;;;11.10;64.11;96565.97;29395;234;63015;-55
2023/04/28 02:21:07;;;;;;;0.40;0.40;;;;;;;11.08;64.18;96568.22;29395;288;63005;-56
2023/04/28 02:21:39;;;;;;;0.40;0.40;;;;;;;11.07;64.37;96569.31;29395;268;63009;-56
2023/04/28 02:22:10;;;;;;;0.50;0.50;;;;;;;11.05;64.37;96571.53;29395;431;63005;-55
2023/04/28 02:22:41;;;;;;;0.50;0.50;;;;;;;11.02;64.20;96575.66;29394;458;64013;-55
2023/04/28 02:23:13;;;;;;;0.50;0.50;;;;;;;11.02;64.34;96580.28;29394;243;64005;-56
2023/04/28 02:23:44;;;;;;;0.82;0.82;;;;;;;11.00;64.60;96579.78;29395;240;63009;-57
2023/04/28 02:24:15;;;;;;;0.50;0.50;;;;;;;10.97;64.64;96583.91;29395;549;63011;-55
2023/04/28 02:24:47;;;;;;;0.50;0.50;;;;;;;10.97;64.68;96586.63;29395;380;63009;-55
2023/04/28 02:25:18;;;;;;;0.70;0.70;;;;;;;10.98;64.49;96587.41;29395;260;63004;-55
2023/04/28 02:25:49;;;;;;;0.50;0.50;;;;;;;10.98;64.76;96587.41;29395;254;63009;-55
2023/04/28 02:26:21;;;;;;;0.50;0.50;;;;;;;10.99;64.88;96595.25;29395;245;63004;-56
2023/04/28 02:26:53;;;;;;;0.45;0.45;;;;;;;11.00;64.61;96590.62;29395;224;63009;-57
2023/04/28 02:27:24;;;;;;;0.40;0.40;;;;;;;10.99;64.66;96592.56;29395;263;63004;-57
2023/04/28 02:27:56;;;;;;;0.50;0.50;;;;;;;10.99;64.74;96583.59;29394;215;64013;-56
2023/04/28 02:28:28;;;;;;;0.50;0.50;;;;;;;10.98;64.62;96587.41;29395;391;63005;-55
2023/04/28 02:28:59;;;;;;;0.50;0.50;;;;;;;10.98;64.99;96587.41;29395;197;63009;-58
2023/04/28 02:29:31;;;;;;;0.50;0.50;;;;;;;10.98;64.66;96588.22;29395;203;63005;-55
2023/04/28 02:30:07;;;;;;;0.50;0.50;;;;;;;10.97;64.73;96583.91;29395;227;63009;-56
2023/04/28 02:30:38;;;;;;;0.50;0.50;;;;;;;10.98;64.64;96584.69;29395;292;63005;-55
2023/04/28 02:31:12;;;;;;;0.50;0.50;;;;;;;10.98;64.71;96584.69;29395;242;63016;-55
2023/04/28 02:31:43;;;;;;;0.50;0.50;;;;;;;10.97;64.71;96580.38;29395;212;63005;-56